CYND

Ottawa / Gatineau Airport

Ottawa, , Canada
METAR CYND 211500Z 30010G17KT 250V330 15SM SKC 08/M07 A3039 RMK SLP294
Observed Flight Rules
Apr-21 @ 15:00 UTC (38 minutes ago) Visual Flight Rules
Wind Visibility Clouds
300° at 10 knots
 Gusting to 17 knots
15 miles
  • Clear skies
Temperatures Readings
Current 8°C / 46°F
Dewpoint -7°C / 19°F
Humidity 34%
Altimeter 30.39" Hg
Pressure 1029.4 hPa
Elevation 64
METAR CYND 211500Z 30010G17KT 250V330 15SM SKC 08/M07 A3039 RMK SLP294
Observed Flight Rules
Apr-21 @ 15:00 UTC
(38 minutes ago)
VFR
Wind Visibility
300° at 10 knots
 Gusting to 17 knots
15 miles
Clouds
  • Clear skies
Temperature Dewpoint
8°C / 46°F -7°C / 19°F
Humidity Altimeter Pressure
34% 30.39" Hg 1029.4 hPa